Temp: 4.4°C   Baro: 1017.3mb
  Wind: 0.0mph   Dir: NNW (342°)
  Rain: 0.0mm (0.0mm/hr)
  Solar: 0W/m2  Hum: 83%

Historic data

Bath Spa Weather Station Historical Data
Daily Summary for May 5, 2021 Units:  Metric    English   Both
Daily Weekly Monthly Yearly Custom
  High: Low: Average:
Temperature: 11.7 °C -0.7 °C 6.3 °C
Dew Point: 8.7 °C -1.3 °C 4.9 °C
Humidity: 94% 77.5% 88%
Wind Speed: 9.3km/h 0km/h 1.6km/h
Wind Gust: 17.7km/h - -
Wind- - WNW
Pressure: 1029.7 hPa 1023.9 hPa -
Precipitation: 0.25 mm    
Historical Graphs
 
 
Tabular Data for May 5, 2021
Time Temperature Dew Point Pressure Wind Wind Speed Wind Gust Humidity Rainfall Rate (Hourly) solar
00:04 1 °C 0.2 °C 1023.9 hPa Calm   1.6 km/h 91% 0 mm 0 W/m2
00:09 1 °C 0.2 °C 1024.3 hPa Calm     91% 0 mm 0 W/m2
00:14 0.9 °C 0.1 °C 1023.9 hPa Calm     91% 0 mm 0 W/m2
00:19 0.8 °C 0.1 °C 1024.3 hPa Calm     91% 0 mm 0 W/m2
00:24 0.8 °C 0 °C 1024.3 hPa Calm     91% 0 mm 0 W/m2
00:29 0.7 °C -0.1 °C 1024.3 hPa Calm     91% 0 mm 0 W/m2
00:34 0.7 °C -0.1 °C 1024.3 hPa Calm     91% 0 mm 0 W/m2
00:39 0.7 °C 0 °C 1024.3 hPa Calm     92% 0 mm 0 W/m2
00:44 0.7 °C -0.1 °C 1024.3 hPa Calm     92% 0 mm 0 W/m2
00:49 0.6 °C -0.1 °C 1024.3 hPa Calm     92% 0 mm 0 W/m2
00:54 0.6 °C -0.2 °C 1024.3 hPa Calm     91.6% 0 mm 0 W/m2
00:59 0.4 °C -0.3 °C 1024.3 hPa Calm     91% 0 mm 0 W/m2
01:04 0.4 °C -0.3 °C 1024.3 hPa Calm     91.8% 0 mm 0 W/m2
01:09 0.3 °C -0.3 °C 1024.3 hPa Calm     92% 0 mm 0 W/m2
01:14 0.3 °C -0.4 °C 1024.3 hPa Calm     92% 0 mm 0 W/m2
01:19 0.2 °C -0.4 °C 1024.3 hPa Calm     92% 0 mm 0 W/m2
01:24 0.2 °C -0.5 °C 1024.3 hPa Calm   1.6 km/h 92% 0 mm 0 W/m2
01:29 0.2 °C -0.5 °C 1024.6 hPa Calm   1.6 km/h 92% 0 mm 0 W/m2
01:34 0.2 °C -0.5 °C 1024.6 hPa Calm     92% 0 mm 0 W/m2
01:39 0.2 °C -0.5 °C 1024.6 hPa Calm     92% 0 mm 0 W/m2
01:44 0.1 °C -0.5 °C 1024.3 hPa Calm     92% 0 mm 0 W/m2
01:49 0.1 °C -0.5 °C 1024.6 hPa Calm     92% 0 mm 0 W/m2
01:54 0.1 °C -0.5 °C 1024.6 hPa Calm     92% 0 mm 0 W/m2
01:59 0.1 °C -0.5 °C 1024.6 hPa Calm     92% 0 mm 0 W/m2
02:04 -0.1 °C -0.7 °C 1024.6 hPa Calm     92% 0 mm 0 W/m2
02:09 -0.2 °C -0.8 °C 1024.6 hPa Calm     92% 0 mm 0 W/m2
02:14 -0.2 °C -0.8 °C 1024.6 hPa Calm     92% 0 mm 0 W/m2
02:19 -0.1 °C -0.7 °C 1024.6 hPa Calm     92% 0 mm 0 W/m2
02:24 -0.1 °C -0.7 °C 1024.6 hPa Calm   1.6 km/h 92% 0 mm 0 W/m2
02:29 -0.1 °C -0.7 °C 1024.6 hPa Calm   1.6 km/h 92% 0 mm 0 W/m2
02:34 -0.1 °C -0.7 °C 1024.3 hPa Calm     92% 0 mm 0 W/m2
02:39 -0.2 °C -0.8 °C 1024.3 hPa Calm     92% 0 mm 0 W/m2
02:44 -0.3 °C -0.8 °C 1024.3 hPa Calm     92% 0 mm 0 W/m2
02:49 -0.3 °C -0.9 °C 1024.6 hPa Calm     92% 0 mm 0 W/m2
02:54 -0.4 °C -1 °C 1024.6 hPa North 0.3 km/h 1.6 km/h 92% 0 mm 0 W/m2
02:59 -0.4 °C -1 °C 1024.6 hPa Calm     92% 0 mm 0 W/m2
03:04 -0.3 °C -0.9 °C 1024.6 hPa Calm     92% 0 mm 0 W/m2
03:09 -0.4 °C -1 °C 1024.6 hPa Calm     92% 0 mm 0 W/m2
03:14 -0.4 °C -1 °C 1024.6 hPa Calm     92% 0 mm 0 W/m2
03:19 -0.4 °C -1 °C 1024.6 hPa Calm     92% 0 mm 0 W/m2
03:24 -0.4 °C -1 °C 1024.9 hPa Calm     92% 0 mm 0 W/m2
03:29 -0.4 °C -1 °C 1024.9 hPa Calm     92% 0 mm 0 W/m2
03:34 -0.4 °C -1.1 °C 1024.9 hPa Calm     92% 0 mm 0 W/m2
03:39 -0.6 °C -1.2 °C 1024.9 hPa Calm     92% 0 mm 0 W/m2
03:44 -0.7 °C -1.2 °C 1024.9 hPa Calm     92% 0 mm 0 W/m2
03:49 -0.6 °C -1.2 °C 1024.9 hPa Calm     92.6% 0 mm 0 W/m2
03:54 -0.6 °C -1.1 °C 1024.9 hPa Calm     93% 0 mm 0 W/m2
03:59 -0.7 °C -1.2 °C 1024.9 hPa Calm     92.8% 0 mm 0 W/m2
04:04 -0.7 °C -1.3 °C 1024.9 hPa Calm     92% 0 mm 0 W/m2
04:09 -0.7 °C -1.3 °C 1024.9 hPa Calm     92% 0 mm 0 W/m2
04:14 -0.7 °C -1.2 °C 1024.9 hPa Calm     92.2% 0 mm 0 W/m2
04:19 -0.6 °C -1.1 °C 1024.9 hPa Calm     93% 0 mm 0 W/m2
04:24 -0.6 °C -1.1 °C 1025.3 hPa Calm     93% 0 mm 0 W/m2
04:29 -0.6 °C -1.1 °C 1025.3 hPa Calm     93% 0 mm 0 W/m2
04:34 -0.6 °C -1.1 °C 1025.3 hPa Calm     93% 0 mm 0 W/m2
04:39 -0.6 °C -1.1 °C 1025.6 hPa Calm     93% 0 mm 0 W/m2
04:44 -0.6 °C -1.1 °C 1025.6 hPa Calm     93% 0 mm 0 W/m2
04:49 -0.5 °C -1 °C 1025.6 hPa Calm     93% 0 mm 0 W/m2
04:54 -0.4 °C -0.9 °C 1025.6 hPa Calm     93% 0 mm 0 W/m2
04:59 -0.3 °C -0.8 °C 1025.6 hPa Calm     93% 0 mm 0 W/m2
05:04 -0.2 °C -0.7 °C 1025.6 hPa Calm     93% 0 mm 0 W/m2
05:09 -0.2 °C -0.7 °C 1025.6 hPa Calm     93% 0 mm 0 W/m2
05:14 -0.1 °C -0.6 °C 1025.6 hPa Calm     93% 0 mm 0 W/m2
05:19 -0.1 °C -0.6 °C 1025.6 hPa Calm   1.6 km/h 93% 0 mm 0 W/m2
05:24 0.1 °C -0.4 °C 1025.6 hPa Calm     93% 0 mm 0 W/m2
05:29 0.1 °C -0.4 °C 1025.6 hPa Calm     93% 0 mm 0 W/m2
05:34 0.2 °C -0.3 °C 1026 hPa Calm     93% 0 mm 0 W/m2
05:39 0.2 °C -0.3 °C 1026 hPa Calm     93% 0 mm 0 W/m2
05:44 0.3 °C -0.2 °C 1026 hPa Calm     93% 0 mm 0 W/m2
05:49 0.2 °C -0.3 °C 1026 hPa Calm     93% 0 mm 0 W/m2
05:54 0.2 °C -0.3 °C 1026 hPa Calm     93% 0 mm 0 W/m2
05:59 0.2 °C -0.3 °C 1026 hPa Calm     93% 0 mm 0 W/m2
06:04 0.3 °C -0.2 °C 1026 hPa Calm     93% 0 mm 0 W/m2
06:08 0.3 °C -0.2 °C 1026 hPa North 0.3 km/h 1.6 km/h 93% 0 mm 0 W/m2
06:14 0.2 °C -0.3 °C 1026.3 hPa Calm     93% 0 mm 0 W/m2
06:19 0.2 °C -0.3 °C 1026.3 hPa Calm     93% 0 mm 0 W/m2
06:24 0.2 °C -0.3 °C 1026.3 hPa Calm     93% 0 mm 0 W/m2
06:29 0.2 °C -0.3 °C 1026.6 hPa Calm     93% 0 mm 0 W/m2
06:34 0.3 °C -0.2 °C 1026.6 hPa Calm     93% 0 mm 0 W/m2
06:39 0.3 °C -0.2 °C 1026.6 hPa Calm     93% 0 mm 0 W/m2
06:44 0.2 °C -0.3 °C 1026.6 hPa Calm   1.6 km/h 93% 0 mm 0 W/m2
06:49 0.3 °C -0.2 °C 1026.6 hPa Calm     93% 0 mm 0 W/m2
06:54 0.6 °C 0.1 °C 1026.6 hPa Calm     93% 0 mm 0 W/m2
06:59 0.7 °C 0.2 °C 1026.6 hPa Calm     93% 0 mm 0 W/m2
07:04 1 °C 0.6 °C 1026.6 hPa Calm     93.8% 0 mm 0 W/m2
07:09 1.3 °C 0.9 °C 1026.6 hPa Calm     94% 0 mm 0 W/m2
07:14 1.6 °C 1.2 °C 1026.6 hPa North 0.3 km/h 1.6 km/h 94% 0 mm 5 W/m2
07:19 1.9 °C 1.6 °C 1027 hPa Calm   1.6 km/h 94% 0 mm 5 W/m2
07:24 2.2 °C 1.8 °C 1027 hPa Calm     94% 0 mm 7 W/m2
07:29 2.1 °C 1.7 °C 1027 hPa Calm     94% 0 mm 9 W/m2
07:34 1.5 °C 1.1 °C 1027 hPa Calm     93.6% 0 mm 11 W/m2
07:39 1.1 °C 0.6 °C 1027 hPa Calm   1.6 km/h 93.3% 0 mm 12 W/m2
07:44 0.8 °C 0.3 °C 1027.3 hPa Calm     93% 0 mm 18 W/m2
07:49 0.8 °C 0.3 °C 1027.3 hPa Calm     93% 0 mm 19 W/m2
07:54 1.2 °C 0.8 °C 1027.3 hPa Calm     93.8% 0 mm 18 W/m2
07:59 1.3 °C 0.8 °C 1027.3 hPa Calm     94% 0 mm 18 W/m2
08:04 1.6 °C 1.1 °C 1027.3 hPa Calm     93.6% 0 mm 19 W/m2
08:09 1.8 °C 1.4 °C 1027.3 hPa Calm     94% 0 mm 21 W/m2
08:14 2.6 °C 2.2 °C 1027.3 hPa Calm     94% 0 mm 23 W/m2
08:19 2.9 °C 2.6 °C 1027.3 hPa Calm     94% 0 mm 26 W/m2
08:24 3.2 °C 2.8 °C 1027.3 hPa Calm     94% 0 mm 30 W/m2
08:29 2.5 °C 2.1 °C 1027.7 hPa Calm     93.4% 0 mm 33 W/m2
08:34 2.9 °C 2.4 °C 1027.7 hPa Calm     93% 0 mm 44 W/m2
08:38 4 °C 3.5 °C 1027.7 hPa Calm   1.6 km/h 93% 0 mm 49 W/m2
08:44 3.7 °C 3.1 °C 1027.7 hPa Calm   1.6 km/h 92% 0.25 mm 67 W/m2
08:49 3.1 °C 2.3 °C 1027.7 hPa Calm     91% 0.25 mm 83 W/m2
08:54 3.6 °C 2.8 °C 1027.7 hPa Calm     91% 0.25 mm 90 W/m2
08:59 3.9 °C 3.1 °C 1027.7 hPa Calm     90.6% 0.25 mm 97 W/m2
09:04 3.8 °C 2.8 °C 1027.7 hPa Calm     90% 0.25 mm 105 W/m2
09:09 4.3 °C 3.3 °C 1027.7 hPa Calm     90.2% 0.25 mm 109 W/m2
09:14 4.6 °C 3.5 °C 1027.7 hPa Calm     89.5% 0.25 mm 118 W/m2
09:19 4.7 °C 3.5 °C 1027.7 hPa Calm     89% 0.25 mm 148 W/m2
09:23 5.2 °C 3.8 °C 1027.7 hPa Calm     88.3% 0.25 mm 156 W/m2
09:29 5.3 °C 4 °C 1027.7 hPa Calm     87.8% 0.25 mm 162 W/m2
09:34 6.1 °C 4.7 °C 1027.7 hPa Calm     87.4% 0.25 mm 158 W/m2
09:39 7.3 °C 5.6 °C 1028 hPa Calm     86% 0.25 mm 185 W/m2
09:44 7.2 °C 5 °C 1028 hPa Calm     83.2% 0.25 mm 193 W/m2
09:49 7.4 °C 5.2 °C 1028 hPa Calm     83% 0 mm 204 W/m2
09:54 7.1 °C 4.8 °C 1028 hPa Calm     82.2% 0 mm 213 W/m2
09:59 7.1 °C 4.9 °C 1028 hPa Calm     83.2% 0 mm 221 W/m2
10:03 7.7 °C 5.6 °C 1028 hPa Calm     83.8% 0 mm 234 W/m2
10:09 8.1 °C 5.9 °C 1028 hPa Calm     83% 0 mm 258 W/m2
10:14 8.2 °C 5.8 °C 1028 hPa Calm     82% 0 mm 255 W/m2
10:19 8.3 °C 5.9 °C 1028.3 hPa Calm     82.2% 0 mm 302 W/m2
10:24 8.5 °C 6.3 °C 1028.3 hPa North 4 km/h 11.3 km/h 83% 0 mm 304 W/m2
10:29 8.7 °C 6.4 °C 1028.3 hPa North 4.8 km/h 9.7 km/h 83% 0 mm 211 W/m2
10:34 8.6 °C 6.4 °C 1028.3 hPa North 4 km/h 6.4 km/h 83% 0 mm 348 W/m2
10:39 8.8 °C 6.7 °C 1028.3 hPa North 4.7 km/h 8 km/h 83.2% 0 mm 353 W/m2
10:44 9.1 °C 6.9 °C 1028 hPa North 3.5 km/h 6.4 km/h 82.8% 0 mm 213 W/m2
10:49 9.2 °C 6.8 °C 1028.3 hPa North 5.6 km/h 9.7 km/h 82.2% 0 mm 234 W/m2
10:54 9.3 °C 7 °C 1028.3 hPa North 5 km/h 8 km/h 82.6% 0 mm 306 W/m2
10:58 9.4 °C 7.1 °C 1028.3 hPa North 6 km/h 8 km/h 82% 0 mm 258 W/m2
11:04 9.6 °C 7.2 °C 1028.3 hPa North 6.4 km/h 9.7 km/h 82% 0 mm 336 W/m2
11:09 9.8 °C 7.3 °C 1028.3 hPa North 4.5 km/h 8 km/h 82% 0 mm 318 W/m2
11:14 9.8 °C 7.3 °C 1028.3 hPa North 3.7 km/h 8 km/h 81% 0 mm 229 W/m2
11:19 10.1 °C 7.4 °C 1028.3 hPa North 5.6 km/h 9.7 km/h 81% 0 mm 181 W/m2
11:24 9.9 °C 7.3 °C 1028.3 hPa North 5.1 km/h 8 km/h 81% 0 mm 350 W/m2
11:29 10.2 °C 7.8 °C 1028.3 hPa North 2.3 km/h 6.4 km/h 81.8% 0 mm 364 W/m2
11:33 10.4 °C 7.8 °C 1028.3 hPa North 4.3 km/h 8 km/h 81% 0 mm 216 W/m2
11:39 10.3 °C 7.6 °C 1028.3 hPa North 1.3 km/h 8 km/h 80.4% 0 mm 192 W/m2
11:44 10.3 °C 7.7 °C 1028.3 hPa North 4.5 km/h 8 km/h 81% 0 mm 214 W/m2
11:49 10.5 °C 7.9 °C 1028.3 hPa North 4.7 km/h 8 km/h 80.8% 0 mm 190 W/m2
11:54 10.6 °C 7.8 °C 1028 hPa North 4.3 km/h 9.7 km/h 80.4% 0 mm 320 W/m2
11:59 10.7 °C 8.2 °C 1028 hPa North 6.1 km/h 9.7 km/h 81% 0 mm 316 W/m2
12:04 10.9 °C 8.1 °C 1028 hPa North 4.7 km/h 9.7 km/h 80% 0 mm 313 W/m2
12:09 10.9 °C 8 °C 1028 hPa North 7.7 km/h 11.3 km/h 79.4% 0 mm 308 W/m2
12:14 10.9 °C 7.9 °C 1028 hPa North 3.9 km/h 9.7 km/h 79.2% 0 mm 362 W/m2
12:19 11.2 °C 8.2 °C 1028 hPa North 5.1 km/h 11.3 km/h 79% 0 mm 404 W/m2
12:24 11.4 °C 8.3 °C 1028.3 hPa North 5.3 km/h 11.3 km/h 78.4% 0 mm 496 W/m2
12:29 11.7 °C 8.4 °C 1028.3 hPa West 9.3 km/h 16.1 km/h 77.8% 0 mm 230 W/m2
12:34 11.4 °C 8.1 °C 1028.3 hPa West 6.4 km/h 12.9 km/h 77.5% 0 mm 178 W/m2
12:39 11.3 °C 8.2 °C 1028.3 hPa West 7.2 km/h 14.5 km/h 78.2% 0 mm 251 W/m2
12:44 11.3 °C 8.1 °C 1028 hPa West 6.3 km/h 14.5 km/h 78% 0 mm 246 W/m2
12:49 11.3 °C 8.2 °C 1028 hPa West 6 km/h 14.5 km/h 78% 0 mm 162 W/m2
12:54 11.3 °C 8.1 °C 1028.3 hPa West 5.3 km/h 12.9 km/h 78% 0 mm 139 W/m2
12:59 11.3 °C 8.2 °C 1028.3 hPa West 9 km/h 16.1 km/h 78.6% 0 mm 153 W/m2
13:04 11.2 °C 8.2 °C 1028.3 hPa West 5.3 km/h 14.5 km/h 79% 0 mm 151 W/m2
13:09 11.1 °C 8.1 °C 1028.3 hPa West 7.9 km/h 17.7 km/h 79% 0 mm 149 W/m2
13:14 11.1 °C 8.1 °C 1028.3 hPa West 5.5 km/h 17.7 km/h 79% 0 mm 127 W/m2
13:19 11.2 °C 8.2 °C 1028.3 hPa West 7.1 km/h 12.9 km/h 79% 0 mm 132 W/m2
13:24 11.1 °C 8.1 °C 1028.3 hPa WNW 5.5 km/h 12.9 km/h 79% 0 mm 144 W/m2
13:29 11.2 °C 8.2 °C 1028.3 hPa WNW 7.4 km/h 14.5 km/h 79% 0 mm 142 W/m2
13:34 11.1 °C 8.2 °C 1028.3 hPa WNW 9.2 km/h 14.5 km/h 79.8% 0 mm 139 W/m2
13:39 11.1 °C 8.3 °C 1028.3 hPa WNW 5.8 km/h 12.9 km/h 80% 0 mm 135 W/m2
13:44 11.2 °C 8.4 °C 1028.3 hPa WNW 3.5 km/h 11.3 km/h 80% 0 mm 123 W/m2
13:49 11.2 °C 8.4 °C 1028.3 hPa WNW 7.1 km/h 12.9 km/h 80% 0 mm 121 W/m2
13:54 11.2 °C 8.4 °C 1028.3 hPa WNW 4.5 km/h 11.3 km/h 80% 0 mm 116 W/m2
13:59 11.2 °C 8.4 °C 1028.3 hPa WNW 3.9 km/h 8 km/h 80.4% 0 mm 105 W/m2
14:04 11.3 °C 8.6 °C 1028.3 hPa WNW 4.5 km/h 9.7 km/h 81% 0 mm 104 W/m2
14:09 11.3 °C 8.6 °C 1028.3 hPa WNW 5.3 km/h 9.7 km/h 81% 0 mm 130 W/m2
14:14 11.3 °C 8.6 °C 1028.3 hPa WNW 4.7 km/h 9.7 km/h 81% 0 mm 132 W/m2
14:19 11.3 °C 8.6 °C 1028.3 hPa WNW 4 km/h 8 km/h 81% 0 mm 81 W/m2
14:24 11.4 °C 8.7 °C 1028.3 hPa WNW 1.3 km/h 4.8 km/h 81% 0 mm 88 W/m2
14:29 11.4 °C 8.7 °C 1028.3 hPa WNW 4.5 km/h 8 km/h 81% 0 mm 104 W/m2
14:34 11.3 °C 8.6 °C 1028.3 hPa WNW 4.5 km/h 8 km/h 81% 0 mm 90 W/m2
14:39 11.3 °C 8.6 °C 1028.3 hPa WNW 2.7 km/h 6.4 km/h 81% 0 mm 93 W/m2
14:44 11.3 °C 8.6 °C 1028.3 hPa WNW 4.2 km/h 6.4 km/h 81% 0 mm 111 W/m2
14:49 11.3 °C 8.6 °C 1028.3 hPa WNW 5.1 km/h 8 km/h 81% 0 mm 98 W/m2
14:54 11.3 °C 8.6 °C 1028.3 hPa WNW 4.5 km/h 8 km/h 81% 0 mm 111 W/m2
14:59 11.3 °C 8.6 °C 1028.3 hPa WNW 2.1 km/h 6.4 km/h 81% 0 mm 97 W/m2
15:04 11.3 °C 8.6 °C 1028.3 hPa Calm   4.8 km/h 81% 0 mm 69 W/m2
15:09 11.2 °C 8.5 °C 1028.3 hPa WNW 1.9 km/h 6.4 km/h 81% 0 mm 69 W/m2
15:14 11.2 °C 8.5 °C 1028.3 hPa WNW 1.3 km/h 4.8 km/h 81% 0 mm 72 W/m2
15:19 11.2 °C 8.6 °C 1028.3 hPa WNW 1.3 km/h 3.2 km/h 81.2% 0 mm 76 W/m2
15:24 11.1 °C 8.6 °C 1028.3 hPa Calm     82% 0 mm 86 W/m2
15:29 11.1 °C 8.6 °C 1028.3 hPa Calm     82% 0 mm 95 W/m2
15:34 11.1 °C 8.6 °C 1028.3 hPa Calm     82% 0 mm 62 W/m2
15:39 11.1 °C 8.6 °C 1028.3 hPa Calm     82% 0 mm 53 W/m2
15:44 11.1 °C 8.6 °C 1028.3 hPa WNW 1.9 km/h 4.8 km/h 82% 0 mm 39 W/m2
15:49 11 °C 8.5 °C 1028.3 hPa WNW 3.2 km/h 4.8 km/h 82% 0 mm 35 W/m2
15:54 10.9 °C 8.4 °C 1028.3 hPa WNW 1.9 km/h 4.8 km/h 82% 0 mm 23 W/m2
15:59 10.9 °C 8.6 °C 1028.7 hPa Calm   3.2 km/h 83% 0 mm 23 W/m2
16:04 10.8 °C 8.5 °C 1028.7 hPa Calm     83% 0 mm 23 W/m2
16:09 10.8 °C 8.5 °C 1028.7 hPa Calm     83% 0 mm 23 W/m2
16:14 10.8 °C 8.5 °C 1028.3 hPa Calm     83% 0 mm 18 W/m2
16:19 10.8 °C 8.5 °C 1028.7 hPa Calm     83% 0 mm 14 W/m2
16:24 10.7 °C 8.6 °C 1028.7 hPa Calm     83.8% 0 mm 7 W/m2
16:29 10.7 °C 8.6 °C 1028.7 hPa Calm     84% 0 mm 5 W/m2
16:33 10.7 °C 8.6 °C 1028.7 hPa Calm     84% 0 mm 0 W/m2
16:39 10.6 °C 8.6 °C 1028.7 hPa Calm     84.2% 0 mm 0 W/m2
16:44 10.6 °C 8.7 °C 1028.7 hPa Calm     85% 0 mm 0 W/m2
16:49 10.6 °C 8.7 °C 1028.7 hPa WNW 0.6 km/h 3.2 km/h 85% 0 mm 0 W/m2
16:54 10.5 °C 8.6 °C 1028.7 hPa WNW 0.3 km/h 3.2 km/h 85% 0 mm 0 W/m2
16:59 10.5 °C 8.6 °C 1028.7 hPa WNW 0.3 km/h 3.2 km/h 85% 0 mm 0 W/m2
17:04 10.5 °C 8.7 °C 1028.7 hPa Calm     86% 0 mm 0 W/m2
17:09 10.5 °C 8.7 °C 1028.7 hPa Calm     86% 0 mm 0 W/m2
17:14 10.5 °C 8.7 °C 1028.7 hPa Calm   3.2 km/h 86% 0 mm 0 W/m2
17:19 10.5 °C 8.7 °C 1028.7 hPa Calm   3.2 km/h 86% 0 mm 0 W/m2
17:24 10.4 °C 8.6 °C 1028.7 hPa Calm     86% 0 mm 0 W/m2
17:29 10.4 °C 8.6 °C 1028.7 hPa Calm     86% 0 mm 0 W/m2
17:34 10.3 °C 8.6 °C 1028.7 hPa Calm     86% 0 mm 0 W/m2
17:39 10.2 °C 8.5 °C 1028.7 hPa WNW 0.6 km/h 3.2 km/h 86.2% 0 mm 0 W/m2
17:44 10.1 °C 8.4 °C 1029 hPa WNW 1.6 km/h 4.8 km/h 86.8% 0 mm 0 W/m2
17:49 9.9 °C 8.3 °C 1029 hPa WNW 4.5 km/h 11.3 km/h 87% 0 mm 0 W/m2
17:54 9.9 °C 8.3 °C 1029 hPa WNW 2.6 km/h 11.3 km/h 87% 0 mm 0 W/m2
17:59 9.9 °C 8.4 °C 1029 hPa WNW 4.5 km/h 6.4 km/h 87.8% 0 mm 0 W/m2
18:04 9.9 °C 8.5 °C 1029 hPa WNW 3.1 km/h 8 km/h 88% 0 mm 0 W/m2
18:09 9.9 °C 8.5 °C 1029.3 hPa WNW 2.1 km/h 4.8 km/h 88% 0 mm 0 W/m2
18:14 9.9 °C 8.5 °C 1029 hPa WNW 2.9 km/h 6.4 km/h 88% 0 mm 0 W/m2
18:19 9.9 °C 8.6 °C 1029.3 hPa WNW 1.8 km/h 4.8 km/h 88% 0 mm 0 W/m2
18:24 10 °C 8.6 °C 1029.3 hPa WNW 2.7 km/h 6.4 km/h 88% 0 mm 0 W/m2
18:29 10.1 °C 8.7 °C 1029.3 hPa WNW 1.9 km/h 6.4 km/h 88% 0 mm 0 W/m2
18:34 10.1 °C 8.7 °C 1029.3 hPa WNW 3.4 km/h 6.4 km/h 88% 0 mm 0 W/m2
18:39 10.1 °C 8.7 °C 1029.3 hPa WNW 2.9 km/h 6.4 km/h 88% 0 mm 0 W/m2
18:44 10.1 °C 8.7 °C 1029.3 hPa WNW 2.7 km/h 6.4 km/h 88% 0 mm 0 W/m2
18:49 10.1 °C 8.7 °C 1029.3 hPa WNW 3.5 km/h 6.4 km/h 88% 0 mm 0 W/m2
18:54 10.1 °C 8.7 °C 1029.3 hPa WNW 3.5 km/h 6.4 km/h 88% 0 mm 0 W/m2
18:59 10.1 °C 8.7 °C 1029.3 hPa WNW 2.7 km/h 6.4 km/h 88% 0 mm 0 W/m2
19:04 10.1 °C 8.7 °C 1029.3 hPa WNW 4.5 km/h 8 km/h 88% 0 mm 0 W/m2
19:09 10 °C 8.6 °C 1029.3 hPa WNW 2.4 km/h 8 km/h 88% 0 mm 0 W/m2
19:14 9.9 °C 8.5 °C 1029.3 hPa WNW 3.5 km/h 6.4 km/h 88% 0 mm 0 W/m2
19:19 9.9 °C 8.5 °C 1029.7 hPa WNW 1.4 km/h 4.8 km/h 88% 0 mm 0 W/m2
19:24 9.8 °C 8.4 °C 1029.7 hPa WNW 2.1 km/h 6.4 km/h 88% 0 mm 0 W/m2
19:29 9.8 °C 8.4 °C 1029.7 hPa WNW 1.9 km/h 4.8 km/h 88% 0 mm 0 W/m2
19:34 9.8 °C 8.3 °C 1029.7 hPa WNW 0.3 km/h 3.2 km/h 88% 0 mm 0 W/m2
19:39 9.7 °C 8.3 °C 1029.7 hPa Calm     88% 0 mm 0 W/m2
19:44 9.6 °C 8.2 °C 1029.7 hPa Calm     88% 0 mm 0 W/m2
19:49 9.4 °C 8 °C 1029.7 hPa Calm     88% 0 mm 0 W/m2
19:54 9.3 °C 7.9 °C 1029.7 hPa Calm     88% 0 mm 0 W/m2
19:59 9.2 °C 7.8 °C 1029.7 hPa Calm     88% 0 mm 0 W/m2
20:04 9.1 °C 7.7 °C 1029.7 hPa Calm     88% 0 mm 0 W/m2
20:09 9.1 °C 7.9 °C 1029.7 hPa Calm     89% 0 mm 0 W/m2
20:14 9.1 °C 7.8 °C 1029.7 hPa Calm     89% 0 mm 0 W/m2
20:19 8.9 °C 7.7 °C 1029.7 hPa Calm     89% 0 mm 0 W/m2
20:24 8.8 °C 7.7 °C 1029.3 hPa Calm     89% 0 mm 0 W/m2
20:29 8.8 °C 7.6 °C 1029.3 hPa Calm     89% 0 mm 0 W/m2
20:34 8.7 °C 7.5 °C 1029.3 hPa Calm     89% 0 mm 0 W/m2
20:39 8.6 °C 7.3 °C 1029.3 hPa WNW 0.6 km/h 3.2 km/h 89% 0 mm 0 W/m2
20:44 8.3 °C 7.2 °C 1029.3 hPa WNW 2.1 km/h 4.8 km/h 89.4% 0 mm 0 W/m2
20:49 8.3 °C 7.2 °C 1029.3 hPa WNW 1.9 km/h 6.4 km/h 90% 0 mm 0 W/m2
20:54 8.4 °C 7.3 °C 1029.3 hPa WNW 2.6 km/h 4.8 km/h 90% 0 mm 0 W/m2
20:59 8.5 °C 7.4 °C 1029.3 hPa WNW 2.9 km/h 4.8 km/h 90% 0 mm 0 W/m2
21:04 8.6 °C 7.5 °C 1029.3 hPa WNW 2.1 km/h 4.8 km/h 90% 0 mm 0 W/m2
21:09 8.6 °C 7.5 °C 1029.7 hPa WNW 3.5 km/h 6.4 km/h 90% 0 mm 0 W/m2
21:13 8.8 °C 7.7 °C 1029.3 hPa WNW 0.8 km/h 6.4 km/h 90% 0 mm 0 W/m2
21:19 8.8 °C 7.7 °C 1029.3 hPa Calm   1.6 km/h 90% 0 mm 0 W/m2
21:24 9 °C 7.9 °C 1029.3 hPa Calm     90% 0 mm 0 W/m2
21:29 9.3 °C 8.2 °C 1029.3 hPa Calm   1.6 km/h 90.2% 0 mm 0 W/m2
21:34 9.3 °C 8.2 °C 1029.3 hPa WNW 1 km/h 4.8 km/h 90% 0 mm 0 W/m2
21:39 9.2 °C 8.1 °C 1029.3 hPa WNW 2.3 km/h 4.8 km/h 90% 0 mm 0 W/m2
21:44 8.9 °C 7.8 °C 1029.3 hPa WNW 3.4 km/h 6.4 km/h 90% 0 mm 0 W/m2
21:49 8.9 °C 7.8 °C 1029.3 hPa WNW 2.7 km/h 6.4 km/h 90% 0 mm 0 W/m2
21:54 8.9 °C 7.8 °C 1029.3 hPa WNW 2.3 km/h 4.8 km/h 90% 0 mm 0 W/m2
21:59 8.9 °C 7.7 °C 1029.3 hPa WNW 2.6 km/h 4.8 km/h 89.4% 0 mm 0 W/m2
22:04 9 °C 7.8 °C 1029.7 hPa WNW 2.1 km/h 6.4 km/h 89% 0 mm 0 W/m2
22:09 9.1 °C 7.8 °C 1029.7 hPa WNW 3.2 km/h 6.4 km/h 89% 0 mm 0 W/m2
22:14 9.1 °C 7.9 °C 1029.3 hPa WNW 3.4 km/h 6.4 km/h 89% 0 mm 0 W/m2
22:19 9.2 °C 7.9 °C 1029.3 hPa WNW 2.1 km/h 4.8 km/h 89% 0 mm 0 W/m2
22:24 9.2 °C 8 °C 1029.3 hPa WNW 2.6 km/h 6.4 km/h 89% 0 mm 0 W/m2
22:29 9.2 °C 8 °C 1029.7 hPa WNW 2.7 km/h 6.4 km/h 89% 0 mm 0 W/m2
22:34 9.2 °C 8 °C 1029.7 hPa WNW 2.9 km/h 8 km/h 88.8% 0 mm 0 W/m2
22:39 9.3 °C 8.1 °C 1029.7 hPa WNW 3.2 km/h 8 km/h 89% 0 mm 0 W/m2
22:44 9.3 °C 8.1 °C 1029.7 hPa WNW 4 km/h 6.4 km/h 88.8% 0 mm 0 W/m2
22:49 9.3 °C 7.9 °C 1029.7 hPa WNW 3.2 km/h 6.4 km/h 88.3% 0 mm 0 W/m2
22:54 9.3 °C 7.9 °C 1029.7 hPa WNW 3.2 km/h 6.4 km/h 88% 0 mm 0 W/m2
22:59 9.3 °C 7.9 °C 1029.7 hPa WNW 2.6 km/h 4.8 km/h 88% 0 mm 0 W/m2
23:04 9.3 °C 7.9 °C 1029.7 hPa WNW 1.4 km/h 3.2 km/h 88% 0 mm 0 W/m2
23:09 9.3 °C 8.1 °C 1029.7 hPa WNW 2.9 km/h 6.4 km/h 88.8% 0 mm 0 W/m2
23:14 9.4 °C 8.2 °C 1029.7 hPa WNW 4.5 km/h 8 km/h 89% 0 mm 0 W/m2
23:19 9.4 °C 8.2 °C 1029.7 hPa WNW 4 km/h 8 km/h 89% 0 mm 0 W/m2
23:24 9.4 °C 8.2 °C 1029.7 hPa WNW 3.9 km/h 8 km/h 89% 0 mm 0 W/m2
23:29 9.4 °C 8.2 °C 1029.7 hPa WNW 2.9 km/h 6.4 km/h 89% 0 mm 0 W/m2
23:34 9.3 °C 8.1 °C 1029.7 hPa WNW 0.8 km/h 6.4 km/h 89% 0 mm 0 W/m2
23:39 9.3 °C 8.2 °C 1029.7 hPa WNW 2.4 km/h 6.4 km/h 90% 0 mm 0 W/m2
23:44 9.3 °C 8.2 °C 1029.7 hPa WNW 4.5 km/h 12.9 km/h 90% 0 mm 0 W/m2
23:49 9.2 °C 8.1 °C 1029.3 hPa WNW 3.2 km/h 8 km/h 90% 0 mm 0 W/m2
23:54 9.2 °C 8.2 °C 1029.3 hPa WNW 1.9 km/h 4.8 km/h 90.5% 0 mm 0 W/m2
23:59 9.2 °C 8.2 °C 1029.3 hPa WNW 0.3 km/h 3.2 km/h 91% 0 mm 0 W/m2
Bath Spa Weather
Compliments of Weather Underground - 2 mb